Integrity — WDF4881 — position and weather

sailwx.info

Track history (hours):
 
Tides and Currents Weather Stations Pressure Air Temp Water Temp Dewpoint Dewpoint Depression Visibility Wind Speed Wind Dir Waves Ship Positions

Integrity

Owner: Canal Barge Company, Inc., Belle Chasse, LA. More information available from US FCC via Universal Licensing System and Coast Guard Vessel Documentation Center.

Last reported at 2016-Dec-02 21:09 UTC. Time now 2016-Dec-04 12:22 UTC.
Position N 29°58' W 090°17'.

Length 19 m; draft 2.8 m.

Type: Towing. MMSI: 367456830.

Date/timePositionNaut miles runAvg speedWind from/ knotsBaromVisibWave heightAir tempDewpointWater temp
2016-Dec-02 21:09N 29°58' W 090°17'2 3.5
2016-Dec-02 20:33N 29°58' W 090°15'4 3.3
2016-Dec-02 19:25N 29°56' W 090°12'3 3.6
2016-Dec-02 18:33N 29°57' W 090°09'3 0.2
2016-Dec-02 02:14N 29°54' W 090°07'0 0.0
2016-Dec-02 01:17N 29°54' W 090°07'  
2016-Nov-28 19:12N 29°55' W 090°07'3 5.2
2016-Nov-28 18:33N 29°57' W 090°09'6 5.7
2016-Nov-28 17:25N 29°58' W 090°17'  
Track history (hours):
 
Tides and Currents Weather Stations Pressure Air Temp Water Temp Dewpoint Dewpoint Depression Visibility Wind Speed Wind Dir Waves Ship Positions

Integrity

Owner: Canal Barge Company, Inc., Belle Chasse, LA. More information available from US FCC via Universal Licensing System and Coast Guard Vessel Documentation Center.

Last reported at 2016-Dec-02 21:09 UTC. Time now 2016-Dec-04 12:22 UTC.
Position N 29°58' W 090°17'.

Length 19 m; draft 2.8 m.

Type: Towing. MMSI: 367456830.

Date/timePositionNaut miles runAvg speedWind from/ knotsBaromVisibWave heightAir tempDewpointWater temp
2016-Dec-02 21:09N 29°58' W 090°17'2 3.5
2016-Dec-02 20:33N 29°58' W 090°15'4 3.3
2016-Dec-02 19:25N 29°56' W 090°12'3 3.6
2016-Dec-02 18:33N 29°57' W 090°09'3 0.2
2016-Dec-02 02:14N 29°54' W 090°07'0 0.0
2016-Dec-02 01:17N 29°54' W 090°07'  
2016-Nov-28 19:12N 29°55' W 090°07'3 5.2
2016-Nov-28 18:33N 29°57' W 090°09'6 5.7
2016-Nov-28 17:25N 29°58' W 090°17'  

Dump ship's entire track history